Kholmogory, Russia
Current Conditions -  °F | °C
As of 6:00 AM on Sunday 26 Oct 2014 (Local Time) from ULAA Reporting Station
Light Snow Light Snow  
Wind Chill: 15°   Ceiling: 900
Heat Index: 23°   Visibility: 1.8mi
Dew Point: 23°   Wind: 7mph
Humidity: 100%   Direction: 170°S
Pressure: 30.15"   Gusts: 16mph
Location:  64.23°N, 41.65°E
Report Text: ULAA 260300Z 17003G07MPS 130V220 2900 -SN OVC009 M05/M05 Q1021 BECMG 2000 SN OVC005 RMK QFE765/1020 SC050
Loading
Personal Weather Stations






























Interactive Weather Map
Tropical Storm Tracking
New forecast layout! Learn more

10-Day Weather Forecast

Advertisements
Track Severe Weather on mobile